createdAt,value
2022-09-04T00:02:49.510Z,6.57
2022-09-04T00:05:46.762Z,9.27
2022-09-04T00:08:37.754Z,7.65
2022-09-04T00:11:13.194Z,8.93
2022-09-04T00:13:46.891Z,8.43
2022-09-04T00:16:28.324Z,8.30
2022-09-04T00:21:43.773Z,9.60
2022-09-04T00:24:16.980Z,8.45
2022-09-04T00:27:11.670Z,8.88
2022-09-04T00:29:42.305Z,9.43
2022-09-04T00:32:38.867Z,10.32
2022-09-04T00:35:15.606Z,8.40
2022-09-04T00:38:07.578Z,8.40
2022-09-04T00:40:45.772Z,7.45
2022-09-04T00:43:32.174Z,8.43
2022-09-04T00:46:30.622Z,8.23
2022-09-04T00:49:10.518Z,7.20
2022-09-04T00:52:12.284Z,7.38
2022-09-04T00:57:43.160Z,8.03
2022-09-04T01:00:17.263Z,8.82
2022-09-04T01:02:57.642Z,7.88
2022-09-04T01:05:40.774Z,7.03
2022-09-04T01:08:41.425Z,6.68
2022-09-04T01:11:37.250Z,7.40
2022-09-04T01:14:23.053Z,6.13
2022-09-04T01:16:58.459Z,5.22
2022-09-04T01:19:53.233Z,5.38
2022-09-04T01:22:47.427Z,7.88
2022-09-04T01:25:54.439Z,7.30
2022-09-04T01:28:38.023Z,7.68
2022-09-04T01:31:10.526Z,4.93
2022-09-04T01:33:57.332Z,5.43
2022-09-04T01:36:49.172Z,5.75
2022-09-04T01:39:21.430Z,5.05
2022-09-04T01:42:14.886Z,6.15
2022-09-04T01:44:43.596Z,5.95
2022-09-04T01:47:36.194Z,5.68
2022-09-04T01:50:15.810Z,6.15
2022-09-04T01:52:53.562Z,5.95
2022-09-04T01:55:46.011Z,6.60
2022-09-04T01:58:36.446Z,5.40
2022-09-04T02:01:22.319Z,5.47
2022-09-04T02:04:01.509Z,5.07
2022-09-04T02:06:41.390Z,5.25
2022-09-04T02:09:47.187Z,4.45
2022-09-04T02:12:39.072Z,4.32
2022-09-04T02:15:36.785Z,3.67
2022-09-04T02:18:39.892Z,4.35
2022-09-04T02:21:27.206Z,5.07
2022-09-04T02:24:26.832Z,4.30
2022-09-04T02:27:09.703Z,4.25
2022-09-04T02:29:49.670Z,7.10
2022-09-04T02:32:38.853Z,5.95
2022-09-04T02:35:28.238Z,5.65
2022-09-04T02:38:26.490Z,5.65
2022-09-04T02:41:04.254Z,5.40
2022-09-04T02:44:12.984Z,5.22
2022-09-04T02:46:49.796Z,4.88
2022-09-04T02:49:52.399Z,4.50
2022-09-04T02:52:39.375Z,3.88
2022-09-04T02:55:45.572Z,3.92
2022-09-04T02:58:20.603Z,3.60
2022-09-04T03:01:23.463Z,7.93
2022-09-04T03:04:23.871Z,6.65
2022-09-04T03:06:55.886Z,5.50
2022-09-04T03:09:48.111Z,6.03
2022-09-04T03:12:36.048Z,6.45
2022-09-04T03:15:42.007Z,6.40
2022-09-04T03:18:49.876Z,5.72
2022-09-04T03:21:26.488Z,5.35
2022-09-04T03:24:01.391Z,5.35
2022-09-04T03:26:35.145Z,5.22
2022-09-04T03:29:25.864Z,6.53
2022-09-04T03:32:21.518Z,5.33
2022-09-04T03:35:08.204Z,4.55
2022-09-04T03:37:55.220Z,3.65
2022-09-04T03:40:44.164Z,3.78
2022-09-04T03:43:23.899Z,4.25
2022-09-04T03:46:13.655Z,4.45
2022-09-04T03:48:47.903Z,4.00
2022-09-04T03:51:35.731Z,4.35
2022-09-04T03:54:09.367Z,4.55
2022-09-04T03:57:04.417Z,3.35
2022-09-04T03:59:44.807Z,4.70
2022-09-04T04:02:47.409Z,4.05
2022-09-04T04:05:29.827Z,3.95
2022-09-04T04:08:21.927Z,4.30
2022-09-04T04:11:24.256Z,4.18
2022-09-04T04:14:01.455Z,4.03
2022-09-04T04:17:01.125Z,3.92
2022-09-04T04:19:53.163Z,3.78
2022-09-04T04:22:47.378Z,4.30
2022-09-04T04:25:53.127Z,4.25
2022-09-04T04:28:39.543Z,4.30
2022-09-04T04:31:28.571Z,3.95
2022-09-04T04:34:27.382Z,4.18
2022-09-04T04:37:02.405Z,3.92
2022-09-04T04:40:11.835Z,4.00
2022-09-04T04:45:54.468Z,3.92
2022-09-04T04:48:52.446Z,4.10
2022-09-04T04:51:42.606Z,3.83
2022-09-04T04:54:23.509Z,3.83
2022-09-04T04:57:11.535Z,4.15
2022-09-04T04:59:58.904Z,4.18
2022-09-04T05:02:52.897Z,4.30
2022-09-04T05:05:58.614Z,4.47
2022-09-04T05:08:56.811Z,3.85
2022-09-04T05:11:32.944Z,4.40
2022-09-04T05:14:25.141Z,4.35
2022-09-04T05:17:08.073Z,4.40
2022-09-04T05:19:54.909Z,4.07
2022-09-04T05:22:36.575Z,4.65
2022-09-04T05:25:28.634Z,3.95
2022-09-04T05:28:20.063Z,4.18
2022-09-04T05:30:57.163Z,4.20
2022-09-04T05:33:54.631Z,3.88
2022-09-04T05:36:45.767Z,4.00
2022-09-04T05:39:23.250Z,4.10
2022-09-04T05:42:06.625Z,4.70
2022-09-04T05:44:59.926Z,4.05
2022-09-04T05:47:55.179Z,4.47
2022-09-04T05:50:50.910Z,4.43
2022-09-04T05:54:00.749Z,4.20
2022-09-04T05:56:52.550Z,4.43
2022-09-04T05:59:52.664Z,5.57
2022-09-04T06:02:53.242Z,4.90
2022-09-04T06:05:24.054Z,4.80
2022-09-04T06:08:10.125Z,4.55
2022-09-04T06:11:07.053Z,5.07
2022-09-04T06:13:59.457Z,4.40
2022-09-04T06:16:46.108Z,5.15
2022-09-04T06:19:40.267Z,5.05
2022-09-04T06:22:16.419Z,4.10
2022-09-04T06:25:19.455Z,4.72
2022-09-04T06:28:14.518Z,4.70
2022-09-04T06:31:09.941Z,3.75
2022-09-04T06:34:07.765Z,3.70
2022-09-04T06:37:05.514Z,4.38
2022-09-04T06:39:52.294Z,3.50
2022-09-04T06:42:49.203Z,3.60
2022-09-04T06:45:36.433Z,3.75
2022-09-04T06:48:25.081Z,3.55
2022-09-04T06:51:25.755Z,3.60
2022-09-04T06:54:15.610Z,3.43
2022-09-04T06:57:18.984Z,3.63
2022-09-04T07:00:02.934Z,3.65
2022-09-04T07:02:58.654Z,4.07
2022-09-04T07:05:55.554Z,3.70
2022-09-04T07:08:42.426Z,3.38
2022-09-04T07:11:21.723Z,3.50
2022-09-04T07:13:58.750Z,4.50
2022-09-04T07:17:03.577Z,4.47
2022-09-04T07:19:54.318Z,4.13
2022-09-04T07:22:41.144Z,4.72
2022-09-04T07:25:27.852Z,4.95
2022-09-04T07:28:30.112Z,4.90
2022-09-04T07:31:00.985Z,5.43
2022-09-04T07:36:39.503Z,5.10
2022-09-04T07:39:31.764Z,5.03
2022-09-04T07:42:33.931Z,5.22
2022-09-04T07:45:48.474Z,5.40
2022-09-04T07:48:24.010Z,5.03
2022-09-04T07:51:13.205Z,5.15
2022-09-04T07:54:09.047Z,4.60
2022-09-04T07:56:56.098Z,4.82
2022-09-04T07:59:30.070Z,4.90
2022-09-04T08:02:11.843Z,4.72
2022-09-04T08:05:18.786Z,4.20
2022-09-04T08:08:15.915Z,5.18
2022-09-04T08:11:05.755Z,4.35
2022-09-04T08:17:44.455Z,5.47
2022-09-04T08:20:54.622Z,4.95
2022-09-04T08:23:43.811Z,4.95
2022-09-04T08:27:00.359Z,5.72
2022-09-04T08:29:50.468Z,5.63
2022-09-04T08:32:45.873Z,5.28
2022-09-04T08:35:57.163Z,4.78
2022-09-04T08:38:39.873Z,5.22
2022-09-04T08:45:29.854Z,4.80
2022-09-04T08:48:28.463Z,4.57
2022-09-04T08:51:14.397Z,4.70
2022-09-04T08:54:04.180Z,4.70
2022-09-04T08:57:16.534Z,4.30
2022-09-04T09:00:12.445Z,4.45
2022-09-04T09:03:13.827Z,5.00
2022-09-04T09:06:00.605Z,4.90
2022-09-04T09:08:53.608Z,4.00
2022-09-04T09:11:47.198Z,3.90
2022-09-04T09:14:35.726Z,3.45
2022-09-04T09:17:13.547Z,4.18
2022-09-04T09:19:47.553Z,3.50
2022-09-04T09:22:53.373Z,4.00
2022-09-04T09:25:33.881Z,3.65
2022-09-04T09:28:45.254Z,3.95
2022-09-04T09:31:13.420Z,3.50
2022-09-04T09:34:03.120Z,3.45
2022-09-04T09:36:38.142Z,4.43
2022-09-04T09:39:06.058Z,3.63
2022-09-04T09:41:47.498Z,3.22
2022-09-04T09:44:36.940Z,3.67
2022-09-04T09:47:42.426Z,2.85
2022-09-04T09:50:21.666Z,3.30
2022-09-04T09:53:26.076Z,2.83
2022-09-04T09:56:16.844Z,2.38
2022-09-04T09:59:01.119Z,2.58
2022-09-04T10:01:32.366Z,2.35
2022-09-04T10:04:45.591Z,2.05
2022-09-04T10:07:25.710Z,2.13
2022-09-04T10:10:25.593Z,2.50
2022-09-04T10:13:47.410Z,3.08
2022-09-04T10:16:59.373Z,1.83
2022-09-04T10:19:43.474Z,2.67
2022-09-04T10:22:49.101Z,2.33
2022-09-04T10:25:38.185Z,2.55
2022-09-04T10:28:46.379Z,1.80
2022-09-04T10:31:25.685Z,1.88
2022-09-04T10:34:08.423Z,1.50
2022-09-04T10:36:36.482Z,1.40
2022-09-04T10:39:45.919Z,1.60
2022-09-04T10:42:39.540Z,1.38
2022-09-04T10:45:28.209Z,1.10
2022-09-04T10:48:32.157Z,1.33
2022-09-04T10:51:36.505Z,0.98
2022-09-04T10:54:23.375Z,1.13
2022-09-04T10:57:05.445Z,1.63
2022-09-04T10:59:57.008Z,1.30
2022-09-04T11:02:42.099Z,1.35
2022-09-04T11:05:36.203Z,1.50
2022-09-04T11:08:27.147Z,1.42
2022-09-04T11:11:25.884Z,1.10
2022-09-04T11:14:08.627Z,1.27
2022-09-04T11:16:52.857Z,1.30
2022-09-04T11:19:35.198Z,1.10
2022-09-04T11:22:41.442Z,1.10
2022-09-04T11:25:39.997Z,1.00
2022-09-04T11:29:09.782Z,1.10
2022-09-04T11:32:06.476Z,1.27
2022-09-04T11:35:08.424Z,1.60
2022-09-04T11:38:14.357Z,1.25
2022-09-04T11:41:11.404Z,1.15
2022-09-04T11:44:30.828Z,1.15
2022-09-04T11:47:29.542Z,1.10
2022-09-04T11:50:16.154Z,1.50
2022-09-04T11:53:02.368Z,1.30
2022-09-04T11:56:02.686Z,1.30
2022-09-04T11:58:54.018Z,1.20
2022-09-04T12:01:57.563Z,1.40
2022-09-04T12:04:34.056Z,1.50
2022-09-04T12:07:42.611Z,1.30
2022-09-04T12:10:33.147Z,1.10
2022-09-04T12:13:14.994Z,1.13
2022-09-04T12:16:16.109Z,1.20
2022-09-04T12:18:55.458Z,1.00
2022-09-04T12:21:54.879Z,1.00
2022-09-04T12:24:41.487Z,1.00
2022-09-04T12:27:20.067Z,1.10
2022-09-04T12:30:04.645Z,1.13
2022-09-04T12:32:56.890Z,1.13
2022-09-04T12:35:46.904Z,1.15
2022-09-04T12:42:33.548Z,1.00
2022-09-04T12:45:30.222Z,0.80
2022-09-04T12:48:37.155Z,1.20
2022-09-04T12:51:25.653Z,5.15
2022-09-04T12:54:16.351Z,1.35
2022-09-04T12:57:26.108Z,1.13
2022-09-04T13:00:42.096Z,1.83
2022-09-04T13:03:45.452Z,0.90
2022-09-04T13:09:53.549Z,0.90
2022-09-04T13:12:55.727Z,1.23
2022-09-04T13:16:01.600Z,9.65
2022-09-04T13:19:05.035Z,10.48
2022-09-04T13:22:15.500Z,1.08
2022-09-04T13:24:52.453Z,2.87
2022-09-04T13:27:29.037Z,14.88
2022-09-04T13:30:41.909Z,1.10
2022-09-04T13:33:40.772Z,1.00
2022-09-04T13:36:46.736Z,2.08
2022-09-04T13:39:41.765Z,0.93
2022-09-04T13:42:31.092Z,1.77
2022-09-04T13:45:11.109Z,8.38
2022-09-04T13:48:05.232Z,3.50
2022-09-04T13:50:42.728Z,0.80
2022-09-04T13:53:26.455Z,0.88
2022-09-04T13:56:11.611Z,1.02
2022-09-04T13:58:52.977Z,0.90
2022-09-04T14:01:26.737Z,0.88
2022-09-04T14:04:02.898Z,0.93
2022-09-04T14:06:32.483Z,0.82
2022-09-04T14:09:06.054Z,2.40
2022-09-04T14:12:12.923Z,20.60
2022-09-04T14:15:18.680Z,1.08
2022-09-04T14:18:19.046Z,1.10
2022-09-04T14:21:02.464Z,0.90
2022-09-04T14:23:44.060Z,0.82
2022-09-04T14:26:29.448Z,1.00
2022-09-04T14:29:33.596Z,0.85
2022-09-04T14:32:24.929Z,0.90
2022-09-04T14:35:03.423Z,3.58
2022-09-04T14:37:38.198Z,5.47
2022-09-04T14:40:29.858Z,5.22
2022-09-04T14:43:29.803Z,0.60
2022-09-04T14:46:14.039Z,0.57
2022-09-04T14:48:50.820Z,0.80
2022-09-04T14:51:39.468Z,0.85
2022-09-04T14:54:10.336Z,11.10
2022-09-04T14:56:49.675Z,17.50
2022-09-04T14:59:17.709Z,4.82
2022-09-04T15:02:04.180Z,1.00
2022-09-04T15:04:49.934Z,0.85
2022-09-04T15:07:50.835Z,1.20
2022-09-04T15:10:50.960Z,1.40
2022-09-04T15:13:32.463Z,1.20
2022-09-04T15:16:31.492Z,2.85
2022-09-04T15:19:21.563Z,1.20
2022-09-04T15:22:06.178Z,1.20
2022-09-04T15:24:47.767Z,1.08
2022-09-04T15:27:54.278Z,1.10
2022-09-04T15:30:39.170Z,1.13
2022-09-04T15:33:12.911Z,11.15
2022-09-04T15:35:42.145Z,9.40
2022-09-04T15:38:22.860Z,1.67
2022-09-04T15:41:15.463Z,1.35
2022-09-04T15:44:30.143Z,1.05
2022-09-04T15:47:15.116Z,1.00
2022-09-04T15:50:06.318Z,0.85
2022-09-04T15:52:58.610Z,0.93
2022-09-04T15:55:36.851Z,1.00
2022-09-04T15:58:20.723Z,0.90
2022-09-04T16:01:10.527Z,0.80
2022-09-04T16:03:48.431Z,1.00
2022-09-04T16:06:31.103Z,1.08
2022-09-04T16:09:20.164Z,1.10
2022-09-04T16:12:11.567Z,1.02
2022-09-04T16:14:50.639Z,1.00
2022-09-04T16:17:27.738Z,0.88
2022-09-04T16:19:59.460Z,0.93
2022-09-04T16:22:33.034Z,0.77
2022-09-04T16:25:11.338Z,1.05
2022-09-04T16:27:48.444Z,0.93
2022-09-04T16:30:34.138Z,1.10
2022-09-04T16:33:03.426Z,1.00
2022-09-04T16:35:37.847Z,0.88
2022-09-04T16:38:23.937Z,1.00
2022-09-04T16:41:20.276Z,0.98
2022-09-04T16:44:26.115Z,0.98
2022-09-04T16:47:12.353Z,1.20
2022-09-04T16:50:02.552Z,1.20
2022-09-04T16:53:12.948Z,1.10
2022-09-04T16:56:02.961Z,1.50
2022-09-04T16:58:47.146Z,1.65
2022-09-04T17:01:20.270Z,1.60
2022-09-04T17:04:14.530Z,1.23
2022-09-04T17:07:03.774Z,1.10
2022-09-04T17:10:02.829Z,1.05
2022-09-04T17:12:50.210Z,1.10
2022-09-04T17:15:39.560Z,1.15
2022-09-04T17:18:15.811Z,1.20
2022-09-04T17:23:43.034Z,1.20
2022-09-04T17:28:57.523Z,1.30
2022-09-04T17:30:44.987Z,1.15
2022-09-04T17:36:24.979Z,1.10
2022-09-04T17:40:35.547Z,1.35
2022-09-04T17:40:57.400Z,2.15
2022-09-04T17:43:30.267Z,1.70
2022-09-04T17:46:09.420Z,1.38
2022-09-04T17:48:47.498Z,1.63
2022-09-04T17:51:22.605Z,1.30
2022-09-04T17:53:55.357Z,1.67
2022-09-04T17:56:44.692Z,1.63
2022-09-04T17:59:45.646Z,1.48
2022-09-04T18:02:28.937Z,1.60
2022-09-04T18:05:23.008Z,1.60
2022-09-04T18:08:09.945Z,1.95
2022-09-04T18:10:47.262Z,2.08
2022-09-04T18:13:38.729Z,2.10
2022-09-04T18:16:41.823Z,2.63
2022-09-04T18:19:21.683Z,1.73
2022-09-04T18:22:25.671Z,1.27
2022-09-04T18:24:54.873Z,1.50
2022-09-04T18:28:06.523Z,1.48
2022-09-04T18:37:09.009Z,1.67
2022-09-04T18:37:20.959Z,1.90
2022-09-04T18:37:44.888Z,2.30
2022-09-04T18:40:43.021Z,3.55
2022-09-04T18:50:20.466Z,2.67
2022-09-04T18:50:36.444Z,2.03
2022-09-04T18:50:48.102Z,2.33
2022-09-04T18:52:07.534Z,1.80
2022-09-04T18:54:42.759Z,2.08
2022-09-04T19:07:35.830Z,2.53
2022-09-04T19:16:19.421Z,2.63
2022-09-04T19:19:17.491Z,2.45
2022-09-04T19:25:10.832Z,1.98
2022-09-04T19:28:06.664Z,2.10
2022-09-04T19:31:06.712Z,2.30
2022-09-04T19:42:14.225Z,2.33
2022-09-04T19:45:54.667Z,2.20
2022-09-04T19:46:18.373Z,2.30
2022-09-04T19:53:19.047Z,2.33
2022-09-04T19:53:40.659Z,2.85
2022-09-04T19:55:44.758Z,3.05
2022-09-04T19:58:19.351Z,2.30
2022-09-04T20:03:51.413Z,2.28
2022-09-04T20:06:29.268Z,2.72
2022-09-04T20:09:12.012Z,3.40
2022-09-04T20:11:47.580Z,3.28
2022-09-04T20:14:30.589Z,2.88
2022-09-04T20:17:04.897Z,2.97
2022-09-04T20:19:49.349Z,3.60
2022-09-04T20:22:17.276Z,3.13
2022-09-04T20:25:01.386Z,2.83
2022-09-04T20:28:01.630Z,3.10
2022-09-04T20:30:35.475Z,3.45
2022-09-04T20:33:05.886Z,3.15
2022-09-04T20:35:47.163Z,3.50
2022-09-04T20:38:24.206Z,3.65
2022-09-04T20:41:08.768Z,3.55
2022-09-04T20:43:52.121Z,3.30
2022-09-04T20:52:40.516Z,3.60
2022-09-04T20:52:52.039Z,4.00
2022-09-04T20:52:52.987Z,4.00
2022-09-04T20:55:48.219Z,4.75
2022-09-04T21:03:10.464Z,3.25
2022-09-04T21:03:23.114Z,4.22
2022-09-04T21:04:42.135Z,4.35
2022-09-04T21:07:25.768Z,4.72
2022-09-04T21:10:19.238Z,3.83
2022-09-04T21:13:10.871Z,4.10
2022-09-04T21:16:08.338Z,3.80
2022-09-04T21:19:28.510Z,4.47
2022-09-04T21:22:32.438Z,4.90
2022-09-04T21:25:18.373Z,4.85
2022-09-04T21:28:34.165Z,4.40
2022-09-04T21:31:17.894Z,4.38
2022-09-04T21:34:08.815Z,4.72
2022-09-04T21:37:11.360Z,4.40
2022-09-04T21:40:18.784Z,4.80
2022-09-04T21:43:36.150Z,4.40
2022-09-04T21:46:47.299Z,4.25
2022-09-04T21:49:27.155Z,4.77
2022-09-04T21:52:55.982Z,4.38
2022-09-04T21:59:50.640Z,4.78
2022-09-04T22:02:27.156Z,3.97
2022-09-04T22:02:39.551Z,5.53
2022-09-04T22:04:45.933Z,5.18
2022-09-04T22:12:13.090Z,5.07
2022-09-04T22:13:31.136Z,5.38
2022-09-04T22:13:48.250Z,5.55
2022-09-04T22:16:42.105Z,7.35
2022-09-04T22:19:23.610Z,6.50
2022-09-04T22:22:36.850Z,5.72
2022-09-04T22:25:46.241Z,6.15
2022-09-04T22:28:23.078Z,5.45
2022-09-04T22:31:09.012Z,6.20
2022-09-04T22:34:17.232Z,5.50
2022-09-04T22:37:16.182Z,5.53
2022-09-04T22:39:49.885Z,4.50
2022-09-04T22:42:45.620Z,5.10
2022-09-04T22:45:29.658Z,4.28
2022-09-04T22:48:09.799Z,4.55
2022-09-04T22:51:13.530Z,4.63
2022-09-04T22:54:02.082Z,4.10
2022-09-04T22:56:58.906Z,4.22
2022-09-04T23:00:05.934Z,4.50
2022-09-04T23:06:44.720Z,4.25
2022-09-04T23:13:48.455Z,3.83
2022-09-04T23:13:57.624Z,3.70
2022-09-04T23:15:55.204Z,4.30
2022-09-04T23:21:50.176Z,4.07
2022-09-04T23:26:45.505Z,3.50
2022-09-04T23:26:46.819Z,3.63
2022-09-04T23:28:27.543Z,3.78
2022-09-04T23:31:29.370Z,3.42
2022-09-04T23:34:20.236Z,3.65
2022-09-04T23:37:02.912Z,3.88
2022-09-04T23:39:54.241Z,3.60
2022-09-04T23:42:52.161Z,3.33
2022-09-04T23:46:00.877Z,3.78
2022-09-04T23:48:52.825Z,4.28
2022-09-04T23:51:26.754Z,4.32
2022-09-04T23:54:25.722Z,3.40
2022-09-04T23:57:26.926Z,4.30
